Map

Track Data

SID SEASON NUMBER BASIN SUBBASIN NAME ISO_TIME NATURE LAT LON WMO_WIND WMO_PRES WMO_AGENCY TRACK_TYPE DIST2LAND LANDFALL IFLAG USA_AGENCY USA_ATCF_ID USA_LAT USA_LON USA_RECORD USA_STATUS USA_WIND USA_PRES USA_SSHS USA_R34_NE USA_R34_SE USA_R34_SW USA_R34_NW USA_R50_NE USA_R50_SE USA_R50_SW USA_R50_NW USA_R64_NE USA_R64_SE USA_R64_SW USA_R64_NW USA_POCI USA_ROCI USA_RMW USA_EYE TOKYO_LAT TOKYO_LON TOKYO_GRADE TOKYO_WIND TOKYO_PRES TOKYO_R50_DIR TOKYO_R50_LONG TOKYO_R50_SHORT TOKYO_R30_DIR TOKYO_R30_LONG TOKYO_R30_SHORT TOKYO_LAND CMA_LAT CMA_LON CMA_CAT CMA_WIND CMA_PRES HKO_LAT HKO_LON HKO_CAT HKO_WIND HKO_PRES NEWDELHI_LAT NEWDELHI_LON NEWDELHI_GRADE NEWDELHI_WIND NEWDELHI_PRES NEWDELHI_CI NEWDELHI_DP NEWDELHI_POCI REUNION_LAT REUNION_LON REUNION_TYPE REUNION_WIND REUNION_PRES REUNION_TNUM REUNION_CI REUNION_RMW REUNION_R34_NE REUNION_R34_SE REUNION_R34_SW REUNION_R34_NW REUNION_R50_NE REUNION_R50_SE REUNION_R50_SW REUNION_R50_NW REUNION_R64_NE REUNION_R64_SE REUNION_R64_SW REUNION_R64_NW BOM_LAT BOM_LON BOM_TYPE BOM_WIND BOM_PRES BOM_TNUM BOM_CI BOM_RMW BOM_R34_NE BOM_R34_SE BOM_R34_SW BOM_R34_NW BOM_R50_NE BOM_R50_SE BOM_R50_SW BOM_R50_NW BOM_R64_NE BOM_R64_SE BOM_R64_SW BOM_R64_NW BOM_ROCI BOM_POCI BOM_EYE BOM_POS_METHOD BOM_PRES_METHOD NADI_LAT NADI_LON NADI_CAT NADI_WIND NADI_PRES WELLINGTON_LAT WELLINGTON_LON WELLINGTON_WIND WELLINGTON_PRES DS824_LAT DS824_LON DS824_STAGE DS824_WIND DS824_PRES TD9636_LAT TD9636_LON TD9636_STAGE TD9636_WIND TD9636_PRES TD9635_LAT TD9635_LON TD9635_WIND TD9635_PRES TD9635_ROCI NEUMANN_LAT NEUMANN_LON NEUMANN_CLASS NEUMANN_WIND NEUMANN_PRES MLC_LAT MLC_LON MLC_CLASS MLC_WIND MLC_PRES USA_GUST BOM_GUST BOM_GUST_PER REUNION_GUST REUNION_GUST_PER USA_SEAHGT USA_SEARAD_NE USA_SEARAD_SE USA_SEARAD_SW USA_SEARAD_NW STORM_SPEED STORM_DIR
1971287N16089 1971 136 NI BB NOT_NAMED 1971-10-14 03:00:00 NR 15.7000 89.2000 main 536 509 __________O___ -1 15.7000 89.2000 1 14 287
1971287N16089 1971 136 NI BB NOT_NAMED 1971-10-14 06:00:00 TS 15.9096 88.5068 main 509 462 O________OP___ jtwc_io IO131971 15.9000 88.5000 -1 15.9000 88.5000 TC 25 15.9192 88.5136 1 14 289
1971287N16089 1971 136 NI BB NOT_NAMED 1971-10-14 09:00:00 TS 16.1545 87.8365 main 447 384 P________PP___ IO131971 16.1655 87.8330 -1 16.1655 87.8330 TC 25 16.1398 87.8412 1 13 291
1971287N16089 1971 136 NI BB NOT_NAMED 1971-10-14 12:00:00 TS 16.3862 87.1992 main 384 323 O________OP___ jtwc_io IO131971 16.4000 87.2000 -1 16.4000 87.2000 TC 25 16.3654 87.1981 1 13 291
1971287N16089 1971 136 NI BB NOT_NAMED 1971-10-14 15:00:00 TS 16.5949 86.6181 main 323 269 P________PO___ IO131971 16.5923 86.6272 -1 16.5923 86.6272 TC 25 16.6000 86.6000 1 12 292
1971287N16089 1971 136 NI BB NOT_NAMED 1971-10-14 18:00:00 TS 16.8153 86.0855 main 269 208 O________OP___ jtwc_io IO131971 16.8000 86.1000 -1 16.8000 86.1000 TC 25 16.8459 86.0565 1 11 297
1971287N16089 1971 136 NI BB NOT_NAMED 1971-10-14 21:00:00 TS 17.0995 85.5799 main 208 146 P________PP___ IO131971 17.0998 85.5926 -1 17.0998 85.5926 TC 25 17.0988 85.5545 1 11 301
1971287N16089 1971 136 NI BB NOT_NAMED 1971-10-15 00:00:00 TS 17.3841 85.0917 main 146 94 O________OP___ jtwc_io IO131971 17.4000 85.1000 -1 17.4000 85.1000 TC 25 17.3523 85.0752 1 11 298
1971287N16089 1971 136 NI BB NOT_NAMED 1971-10-15 03:00:00 TS 17.6049 84.5998 main 94 49 P________PO___ IO131971 17.6074 84.5997 -1 17.6074 84.5997 TC 25 17.6000 84.6000 1 10 294
1971287N16089 1971 136 NI BB NOT_NAMED 1971-10-15 06:00:00 TS 17.8108 84.0891 main 49 0 O________OP___ jtwc_io IO131971 17.8000 84.1000 -1 17.8000 84.1000 TC 25 17.8323 84.0674 1 11 295
1971287N16089 1971 136 NI BB NOT_NAMED 1971-10-15 09:00:00 TS 18.0525 83.5750 main 0 0 P________PP___ IO131971 18.0499 83.5925 -1 18.0499 83.5925 TC 25 18.0578 83.5399 1 11 297
1971287N16089 1971 136 NI BB NOT_NAMED 1971-10-15 12:00:00 TS 18.2931 83.0808 main 0 0 O________OP___ jtwc_io IO131971 18.3000 83.1000 -1 18.3000 83.1000 TC 25 18.2793 83.0424 1 10 296
1971287N16089 1971 136 NI BB NOT_NAMED 1971-10-15 15:00:00 TS 18.5000 82.6083 main 0 0 P________PO___ IO131971 18.5000 82.6124 -1 18.5000 82.6124 TC 25 18.5000 82.6000 1 9 296
1971287N16089 1971 136 NI BB NOT_NAMED 1971-10-15 18:00:00 TS 18.6919 82.2124 main 0 0 O________OP___ jtwc_io IO131971 18.7000 82.2000 -1 18.7000 82.2000 TC 25 18.6756 82.2373 1 8 303
1971287N16089 1971 136 NI BB NOT_NAMED 1971-10-15 21:00:00 TS 18.9146 81.9285 main 0 0 P________PP___ IO131971 18.9423 81.9273 -1 18.9423 81.9273 TC 25 18.8592 81.9309 1 7 313
1971287N16089 1971 136 NI BB NOT_NAMED 1971-10-16 00:00:00 TS 19.1628 81.6864 main 0 0 O________OP___ jtwc_io IO131971 19.2000 81.7000 -1 19.2000 81.7000 TC 25 19.0882 81.6591 1 7 314
1971287N16089 1971 136 NI BB NOT_NAMED 1971-10-16 03:00:00 TS 19.3983 81.4048 main 0 0 P________PO___ IO131971 19.3975 81.4071 -1 19.3975 81.4071 TC 25 19.4000 81.4000 1 8 316
1971287N16089 1971 136 NI BB NOT_NAMED 1971-10-16 06:00:00 TS 19.7409 81.0941 main 0 0 O________OP___ jtwc_io IO131971 19.7000 81.1000 -1 19.7000 81.1000 TC 25 19.8227 81.0822 1 11 326
1971287N16089 1971 136 NI BB NOT_NAMED 1971-10-16 09:00:00 TS 20.2752 80.7774 main 0 0 P________PP___ IO131971 20.2476 80.7778 -1 20.2476 80.7778 TC 25 20.3303 80.7764 1 13 334
1971287N16089 1971 136 NI BB NOT_NAMED 1971-10-16 12:00:00 TS 20.8993 80.5024 main 0 0 O________OP___ jtwc_io IO131971 20.9000 80.5000 -1 20.9000 80.5000 TC 25 20.8978 80.5073 1 13 340
1971287N16089 1971 136 NI BB NOT_NAMED 1971-10-16 15:00:00 TS 21.4950 80.3082 main 0 0 P________PO___ IO131971 21.4924 80.3123 -1 21.4924 80.3123 TC 25 21.5000 80.3000 1 12 347
1971287N16089 1971 136 NI BB NOT_NAMED 1971-10-16 18:00:00 TS 22.1027 80.1921 main 0 0 O________OP___ jtwc_io IO131971 22.1000 80.2000 -1 22.1000 80.2000 TC 25 22.1081 80.1762 1 13 352
1971287N16089 1971 136 NI BB NOT_NAMED 1971-10-16 21:00:00 TS 22.7474 80.1237 main 0 0 P________PP___ IO131971 22.7500 80.1274 -1 22.7500 80.1274 TC 25 22.7422 80.1163 1 13 356
1971287N16089 1971 136 NI BB NOT_NAMED 1971-10-17 00:00:00 TS 23.3934 80.0994 main 0 0 O________OP___ jtwc_io IO131971 23.4000 80.1000 -1 23.4000 80.1000 TC 25 23.3801 80.0983 1 13 0
1971287N16089 1971 136 NI BB NOT_NAMED 1971-10-17 03:00:00 TS 24.0100 80.0949 main 0 0 P________PO___ IO131971 24.0150 80.0924 -1 24.0150 80.0924 TC 25 24.0000 80.1000 1 12 1
1971287N16089 1971 136 NI BB NOT_NAMED 1971-10-17 06:00:00 TS 24.5940 80.1011 main 0 0 O________OP___ jtwc_io IO131971 24.6000 80.1000 -1 24.6000 80.1000 TC 25 24.5850 80.1026 1 11 0
1971287N16089 1971 136 NI BB NOT_NAMED 1971-10-17 09:00:00 TS 25.1500 80.1027 main 0 0 P________PP___ IO131971 25.1575 80.1026 -1 25.1575 80.1026 TC 25 25.1400 80.1030 1 11 359
1971287N16089 1971 136 NI BB NOT_NAMED 1971-10-17 12:00:00 TS 25.6875 80.1010 main 0 0 O________OP___ jtwc_io IO131971 25.7000 80.1000 -1 25.7000 80.1000 TC 25 25.6750 80.1019 1 11 0
1971287N16089 1971 136 NI BB NOT_NAMED 1971-10-17 15:00:00 NR 26.2000 80.1000 main 0 __________O___ IO131971 -1 TC 26.2000 80.1000 1 10 358

About IBTrACS Database

This database is a web-friendly format of International Best Track Archive for Climate Stewardship (IBTrACS), a global best track data archive curated by NOAA dating back to 1842.

Updated: 2021-11-26